createdAt,value
2023-07-18T00:01:59.649Z,15.80
2023-07-18T00:04:28.660Z,15.80
2023-07-18T00:06:55.659Z,15.80
2023-07-18T00:09:23.238Z,15.70
2023-07-18T00:11:50.473Z,15.70
2023-07-18T00:14:17.829Z,15.60
2023-07-18T00:16:47.975Z,15.60
2023-07-18T00:19:15.527Z,15.50
2023-07-18T00:21:42.753Z,15.50
2023-07-18T00:24:09.675Z,15.50
2023-07-18T00:26:36.377Z,15.40
2023-07-18T00:29:03.104Z,15.40
2023-07-18T00:31:29.858Z,15.40
2023-07-18T00:33:56.574Z,15.30
2023-07-18T00:36:23.361Z,15.30
2023-07-18T00:38:50.397Z,15.30
2023-07-18T00:41:17.444Z,15.20
2023-07-18T00:43:44.376Z,15.20
2023-07-18T00:46:12.081Z,15.20
2023-07-18T00:48:39.109Z,15.20
2023-07-18T00:51:05.975Z,15.20
2023-07-18T00:53:33.224Z,15.30
2023-07-18T00:56:00.450Z,15.20
2023-07-18T00:58:29.233Z,15.20
2023-07-18T01:00:56.008Z,15.10
2023-07-18T01:03:23.135Z,15.10
2023-07-18T01:05:50.040Z,15.00
2023-07-18T01:08:16.808Z,14.90
2023-07-18T01:10:43.515Z,14.80
2023-07-18T01:13:10.905Z,14.80
2023-07-18T01:15:38.111Z,14.80
2023-07-18T01:18:08.210Z,14.80
2023-07-18T01:20:37.110Z,14.70
2023-07-18T01:23:05.251Z,14.70
2023-07-18T01:25:32.810Z,14.70
2023-07-18T01:28:02.614Z,14.70
2023-07-18T01:30:30.964Z,14.70
2023-07-18T01:32:58.911Z,14.60
2023-07-18T01:35:27.444Z,14.60
2023-07-18T01:37:55.898Z,14.50
2023-07-18T01:40:23.146Z,14.50
2023-07-18T01:42:53.947Z,14.50
2023-07-18T01:45:25.478Z,14.50
2023-07-18T01:47:52.988Z,14.50
2023-07-18T01:50:20.059Z,14.40
2023-07-18T01:52:48.485Z,14.40
2023-07-18T01:55:16.285Z,14.40
2023-07-18T01:57:44.049Z,14.40
2023-07-18T02:00:12.724Z,14.40
2023-07-18T02:02:40.409Z,14.30
2023-07-18T02:05:08.021Z,14.30
2023-07-18T02:07:34.982Z,14.30
2023-07-18T02:10:01.963Z,14.30
2023-07-18T02:12:29.330Z,14.30
2023-07-18T02:14:56.093Z,14.20
2023-07-18T02:17:23.022Z,14.20
2023-07-18T02:19:49.832Z,14.20
2023-07-18T02:22:18.283Z,14.10
2023-07-18T02:24:45.064Z,14.20
2023-07-18T02:27:11.841Z,14.10
2023-07-18T02:29:38.602Z,14.10
2023-07-18T02:32:05.783Z,14.10
2023-07-18T02:34:32.439Z,14.00
2023-07-18T02:36:59.159Z,14.00
2023-07-18T02:39:25.865Z,14.00
2023-07-18T02:41:52.550Z,14.00
2023-07-18T02:44:19.277Z,13.90
2023-07-18T02:46:46.073Z,14.00
2023-07-18T02:49:12.941Z,13.90
2023-07-18T02:51:39.657Z,13.90
2023-07-18T02:54:06.348Z,13.90
2023-07-18T02:56:33.583Z,13.90
2023-07-18T02:59:00.305Z,13.90
2023-07-18T03:01:27.326Z,13.90
2023-07-18T03:03:55.496Z,13.90
2023-07-18T03:06:25.103Z,14.00
2023-07-18T03:08:52.128Z,13.90
2023-07-18T03:11:20.001Z,13.90
2023-07-18T03:13:47.058Z,13.90
2023-07-18T03:16:14.135Z,13.90
2023-07-18T03:18:41.665Z,13.90
2023-07-18T03:21:08.493Z,13.80
2023-07-18T03:23:35.604Z,13.70
2023-07-18T03:26:02.339Z,13.70
2023-07-18T03:28:29.430Z,13.70
2023-07-18T03:30:56.138Z,13.70
2023-07-18T03:33:22.898Z,13.70
2023-07-18T03:35:49.639Z,13.70
2023-07-18T03:38:16.438Z,13.70
2023-07-18T03:40:43.172Z,13.70
2023-07-18T03:43:09.935Z,13.70
2023-07-18T03:45:36.750Z,13.80
2023-07-18T03:48:03.593Z,13.80
2023-07-18T03:50:30.378Z,13.90
2023-07-18T03:52:57.103Z,13.90
2023-07-18T03:55:23.881Z,14.00
2023-07-18T03:57:50.704Z,14.00
2023-07-18T04:00:19.595Z,14.10
2023-07-18T04:02:47.854Z,14.10
2023-07-18T04:05:16.061Z,14.10
2023-07-18T04:07:43.054Z,14.20
2023-07-18T04:10:12.774Z,14.30
2023-07-18T04:12:40.645Z,14.30
2023-07-18T04:15:09.136Z,14.40
2023-07-18T04:17:36.140Z,14.50
2023-07-18T04:20:06.709Z,14.50
2023-07-18T04:22:33.443Z,14.70
2023-07-18T04:25:00.360Z,15.00
2023-07-18T04:27:28.532Z,15.20
2023-07-18T04:29:55.916Z,15.10
2023-07-18T04:32:22.614Z,15.10
2023-07-18T04:34:49.905Z,15.10
2023-07-18T04:37:17.060Z,15.20
2023-07-18T04:39:43.835Z,15.50
2023-07-18T04:42:11.978Z,15.60
2023-07-18T04:44:39.041Z,15.60
2023-07-18T04:47:06.100Z,15.60
2023-07-18T04:49:33.102Z,15.70
2023-07-18T04:52:00.005Z,16.10
2023-07-18T04:54:26.754Z,17.20
2023-07-18T04:56:54.596Z,18.80
2023-07-18T04:59:22.487Z,19.20
2023-07-18T05:01:55.600Z,19.90
2023-07-18T05:04:22.661Z,19.50
2023-07-18T05:06:52.361Z,19.00
2023-07-18T05:09:19.115Z,18.50
2023-07-18T05:11:48.831Z,18.40
2023-07-18T05:14:15.600Z,18.30
2023-07-18T05:16:42.851Z,18.30
2023-07-18T05:19:09.642Z,18.20
2023-07-18T05:21:36.383Z,18.20
2023-07-18T05:24:03.167Z,18.00
2023-07-18T05:26:29.917Z,18.00
2023-07-18T05:28:56.713Z,18.00
2023-07-18T05:31:23.908Z,17.90
2023-07-18T05:33:51.732Z,17.80
2023-07-18T05:36:18.474Z,17.90
2023-07-18T05:38:46.356Z,17.90
2023-07-18T05:41:13.268Z,18.00
2023-07-18T05:43:40.010Z,18.00
2023-07-18T05:46:06.835Z,18.10
2023-07-18T05:48:33.738Z,18.10
2023-07-18T05:51:02.067Z,18.30
2023-07-18T05:53:29.010Z,18.40
2023-07-18T05:55:56.183Z,18.60
2023-07-18T05:58:23.071Z,18.80
2023-07-18T06:00:49.857Z,19.00
2023-07-18T06:03:16.808Z,19.10
2023-07-18T06:05:43.573Z,19.00
2023-07-18T06:08:13.120Z,19.00
2023-07-18T06:10:39.922Z,18.70
2023-07-18T06:13:06.622Z,18.60
2023-07-18T06:15:33.415Z,18.60
2023-07-18T06:18:00.790Z,18.70
2023-07-18T06:20:27.694Z,18.50
2023-07-18T06:22:55.856Z,18.60
2023-07-18T06:25:22.799Z,18.70
2023-07-18T06:27:49.469Z,18.60
2023-07-18T06:30:16.204Z,18.70
2023-07-18T06:32:42.877Z,18.70
2023-07-18T06:35:22.932Z,18.70
2023-07-18T06:37:51.296Z,18.70
2023-07-18T06:40:18.492Z,18.80
2023-07-18T06:42:45.271Z,18.90
2023-07-18T06:45:13.502Z,18.90
2023-07-18T06:47:40.357Z,18.90
2023-07-18T06:50:07.689Z,18.70
2023-07-18T06:52:36.689Z,18.70
2023-07-18T06:55:07.322Z,18.90
2023-07-18T06:57:34.820Z,18.90
2023-07-18T07:00:01.647Z,19.20
2023-07-18T07:02:28.343Z,19.30
2023-07-18T07:04:55.067Z,19.30
2023-07-18T07:07:21.804Z,19.50
2023-07-18T07:09:48.502Z,19.50
2023-07-18T07:12:26.310Z,19.50
2023-07-18T07:15:02.353Z,19.60
2023-07-18T07:17:29.047Z,19.60
2023-07-18T07:19:55.805Z,19.70
2023-07-18T07:22:22.561Z,19.80
2023-07-18T07:24:49.306Z,20.00
2023-07-18T07:27:16.072Z,20.00
2023-07-18T07:29:42.765Z,20.10
2023-07-18T07:32:09.873Z,20.20
2023-07-18T07:34:38.275Z,20.20
2023-07-18T07:37:06.412Z,20.30
2023-07-18T07:39:33.150Z,20.40
2023-07-18T07:41:59.875Z,20.50
2023-07-18T07:44:26.635Z,20.50
2023-07-18T07:46:53.583Z,20.60
2023-07-18T07:49:21.900Z,20.70
2023-07-18T07:51:48.593Z,20.60
2023-07-18T07:54:15.305Z,20.80
2023-07-18T07:56:42.099Z,20.80
2023-07-18T07:59:11.810Z,20.90
2023-07-18T08:01:39.438Z,21.00
2023-07-18T08:04:06.579Z,21.00
2023-07-18T08:06:33.418Z,21.10
2023-07-18T08:09:00.559Z,21.30
2023-07-18T08:11:27.302Z,21.30
2023-07-18T08:13:54.525Z,21.40
2023-07-18T08:16:22.081Z,21.50
2023-07-18T08:18:48.899Z,21.40
2023-07-18T08:21:15.714Z,21.50
2023-07-18T08:23:42.404Z,21.60
2023-07-18T08:26:09.163Z,21.40
2023-07-18T08:28:35.923Z,21.60
2023-07-18T08:31:05.397Z,21.70
2023-07-18T08:33:32.748Z,21.90
2023-07-18T08:35:59.502Z,22.00
2023-07-18T08:38:26.214Z,22.10
2023-07-18T08:40:53.793Z,22.10
2023-07-18T08:43:21.508Z,22.10
2023-07-18T08:45:48.902Z,21.80
2023-07-18T08:48:15.954Z,22.00
2023-07-18T08:50:43.751Z,21.90
2023-07-18T08:53:10.635Z,22.20
2023-07-18T08:55:37.924Z,22.40
2023-07-18T08:58:06.223Z,22.40
2023-07-18T09:00:32.998Z,22.60
2023-07-18T09:02:59.790Z,22.30
2023-07-18T09:05:37.016Z,22.60
2023-07-18T09:08:05.745Z,22.90
2023-07-18T09:10:33.367Z,23.10
2023-07-18T09:13:08.664Z,23.30
2023-07-18T09:15:37.033Z,23.30
2023-07-18T09:18:06.783Z,23.50
2023-07-18T09:20:34.151Z,23.40
2023-07-18T09:23:05.993Z,23.30
2023-07-18T09:25:39.672Z,23.30
2023-07-18T09:28:12.492Z,23.30
2023-07-18T09:30:40.453Z,23.50
2023-07-18T09:33:07.801Z,23.70
2023-07-18T09:35:39.817Z,23.90
2023-07-18T09:38:08.414Z,23.90
2023-07-18T09:40:36.697Z,23.90
2023-07-18T09:43:03.644Z,24.30
2023-07-18T09:45:31.084Z,24.70
2023-07-18T09:47:59.171Z,25.10
2023-07-18T09:50:27.274Z,24.80
2023-07-18T09:52:58.226Z,25.40
2023-07-18T09:55:28.081Z,25.70
2023-07-18T09:57:56.763Z,26.10
2023-07-18T10:00:24.889Z,26.50
2023-07-18T10:02:53.856Z,26.40
2023-07-18T10:05:21.167Z,26.60
2023-07-18T10:07:50.700Z,26.90
2023-07-18T10:10:18.331Z,26.90
2023-07-18T10:13:00.641Z,26.70
2023-07-18T10:15:28.967Z,26.40
2023-07-18T10:18:15.630Z,26.00
2023-07-18T10:20:56.628Z,25.90
2023-07-18T10:23:42.903Z,25.70
2023-07-18T10:26:10.435Z,25.40
2023-07-18T10:28:48.069Z,24.60
2023-07-18T10:31:31.170Z,24.50
2023-07-18T10:34:16.222Z,24.80
2023-07-18T10:37:00.318Z,25.20
2023-07-18T10:39:44.500Z,24.90
2023-07-18T10:42:17.889Z,25.30
2023-07-18T10:44:44.596Z,25.70
2023-07-18T10:47:18.610Z,25.50
2023-07-18T10:49:46.478Z,25.80
2023-07-18T10:52:13.735Z,26.20
2023-07-18T10:54:51.705Z,26.90
2023-07-18T10:57:34.054Z,27.50
2023-07-18T11:00:04.717Z,27.80
2023-07-18T11:02:45.882Z,27.80
2023-07-18T11:05:15.617Z,27.80
2023-07-18T11:07:50.345Z,27.50
2023-07-18T11:10:17.408Z,26.90
2023-07-18T11:12:44.472Z,26.80
2023-07-18T11:15:13.137Z,26.60
2023-07-18T11:17:40.155Z,26.40
2023-07-18T11:20:08.349Z,26.30
2023-07-18T11:22:35.409Z,26.00
2023-07-18T11:25:02.413Z,26.00
2023-07-18T11:27:32.389Z,25.80
2023-07-18T11:30:04.324Z,25.40
2023-07-18T11:32:42.801Z,25.40
2023-07-18T11:35:19.726Z,25.40
2023-07-18T11:37:49.207Z,25.60
2023-07-18T11:40:26.575Z,25.80
2023-07-18T11:42:59.166Z,25.90
2023-07-18T11:45:28.435Z,26.40
2023-07-18T11:47:59.837Z,26.60
2023-07-18T11:50:31.137Z,26.80
2023-07-18T11:52:59.691Z,27.10
2023-07-18T11:55:26.744Z,27.10
2023-07-18T11:57:53.537Z,26.50
2023-07-18T12:00:21.100Z,26.70
2023-07-18T12:02:49.554Z,26.70
2023-07-18T12:05:17.463Z,26.80
2023-07-18T12:07:45.922Z,26.50
2023-07-18T12:10:13.547Z,26.60
2023-07-18T12:12:40.577Z,27.10
2023-07-18T12:15:08.500Z,27.20
2023-07-18T12:17:35.445Z,26.40
2023-07-18T12:20:02.237Z,26.60
2023-07-18T12:22:28.976Z,26.50
2023-07-18T12:24:55.741Z,27.10
2023-07-18T12:27:22.464Z,27.40
2023-07-18T12:29:49.509Z,27.50
2023-07-18T12:32:16.240Z,27.90
2023-07-18T12:34:42.989Z,28.10
2023-07-18T12:37:09.974Z,28.40
2023-07-18T12:39:36.777Z,28.60
2023-07-18T12:42:03.614Z,28.20
2023-07-18T12:44:47.968Z,27.70
2023-07-18T12:47:15.206Z,27.60
2023-07-18T12:52:13.907Z,27.60
2023-07-18T12:54:41.423Z,27.50
2023-07-18T12:57:08.658Z,27.20
2023-07-18T12:59:35.573Z,27.10
2023-07-18T13:02:02.644Z,26.90
2023-07-18T13:04:30.042Z,26.90
2023-07-18T13:06:57.182Z,26.80
2023-07-18T13:09:23.950Z,26.90
2023-07-18T13:11:51.000Z,26.90
2023-07-18T13:14:19.186Z,26.70
2023-07-18T13:16:46.268Z,26.80
2023-07-18T13:19:13.008Z,26.70
2023-07-18T13:21:40.050Z,26.50
2023-07-18T13:24:06.968Z,25.80
2023-07-18T13:26:33.666Z,26.10
2023-07-18T13:29:00.958Z,26.60
2023-07-18T13:31:28.097Z,26.60
2023-07-18T13:33:55.208Z,26.10
2023-07-18T13:36:23.017Z,26.10
2023-07-18T13:38:50.094Z,26.20
2023-07-18T13:41:17.099Z,26.20
2023-07-18T13:43:44.143Z,26.20
2023-07-18T13:46:11.312Z,26.20
2023-07-18T13:48:39.908Z,26.10
2023-07-18T13:51:06.801Z,26.00
2023-07-18T13:53:33.844Z,26.20
2023-07-18T13:56:00.607Z,26.20
2023-07-18T13:58:27.329Z,26.30
2023-07-18T14:00:54.122Z,26.40
2023-07-18T14:03:34.128Z,26.50
2023-07-18T14:06:01.735Z,26.20
2023-07-18T14:08:30.569Z,26.00
2023-07-18T14:10:58.031Z,26.20
2023-07-18T14:13:24.837Z,25.90
2023-07-18T14:15:51.730Z,26.30
2023-07-18T14:18:18.763Z,26.70
2023-07-18T14:20:46.066Z,26.90
2023-07-18T14:23:13.245Z,26.60
2023-07-18T14:25:40.124Z,26.60
2023-07-18T14:28:06.861Z,26.60
2023-07-18T14:30:33.730Z,26.00
2023-07-18T14:33:01.467Z,26.10
2023-07-18T14:35:29.871Z,26.60
2023-07-18T14:37:56.571Z,26.70
2023-07-18T14:40:23.440Z,26.30
2023-07-18T14:42:50.198Z,26.30
2023-07-18T14:45:17.179Z,26.20
2023-07-18T14:47:43.937Z,26.20
2023-07-18T14:50:10.939Z,26.10
2023-07-18T14:52:37.918Z,26.00
2023-07-18T14:55:05.140Z,26.00
2023-07-18T14:57:31.830Z,25.50
2023-07-18T14:59:58.699Z,25.50
2023-07-18T15:02:25.500Z,25.80
2023-07-18T15:04:52.516Z,26.20
2023-07-18T15:07:19.332Z,26.40
2023-07-18T15:09:46.101Z,26.60
2023-07-18T15:12:12.854Z,27.00
2023-07-18T15:14:39.676Z,26.90
2023-07-18T15:17:06.470Z,27.00
2023-07-18T15:19:33.405Z,26.80
2023-07-18T15:22:01.697Z,26.80
2023-07-18T15:24:28.499Z,27.00
2023-07-18T15:26:55.559Z,26.80
2023-07-18T15:29:22.714Z,26.40
2023-07-18T15:31:49.543Z,26.40
2023-07-18T15:34:16.370Z,26.80
2023-07-18T15:36:47.308Z,26.40
2023-07-18T15:39:14.487Z,26.50
2023-07-18T15:41:41.229Z,26.80
2023-07-18T15:44:08.137Z,26.60
2023-07-18T15:46:38.399Z,26.50
2023-07-18T15:49:05.730Z,26.40
2023-07-18T15:51:32.846Z,26.30
2023-07-18T15:53:59.548Z,26.40
2023-07-18T15:56:26.245Z,26.50
2023-07-18T15:58:53.593Z,26.60
2023-07-18T16:01:20.437Z,26.70
2023-07-18T16:03:47.696Z,26.40
2023-07-18T16:06:14.866Z,26.50
2023-07-18T16:08:41.798Z,26.50
2023-07-18T16:11:08.529Z,26.70
2023-07-18T16:13:36.314Z,27.00
2023-07-18T16:16:05.786Z,27.30
2023-07-18T16:18:32.690Z,27.20
2023-07-18T16:20:59.519Z,27.00
2023-07-18T16:23:26.356Z,27.10
2023-07-18T16:25:53.376Z,27.20
2023-07-18T16:28:20.138Z,26.90
2023-07-18T16:30:46.858Z,27.00
2023-07-18T16:33:13.763Z,26.80
2023-07-18T16:35:40.537Z,26.50
2023-07-18T16:38:07.509Z,26.40
2023-07-18T16:40:36.557Z,26.20
2023-07-18T16:43:05.674Z,26.20
2023-07-18T16:45:32.541Z,26.10
2023-07-18T16:47:59.293Z,26.00
2023-07-18T16:50:26.489Z,26.00
2023-07-18T16:52:53.436Z,26.00
2023-07-18T16:55:20.235Z,26.00
2023-07-18T16:57:46.955Z,26.00
2023-07-18T17:00:14.323Z,25.90
2023-07-18T17:02:41.115Z,25.80
2023-07-18T17:05:08.124Z,25.80
2023-07-18T17:07:35.941Z,25.80
2023-07-18T17:10:04.447Z,25.70
2023-07-18T17:12:31.195Z,25.60
2023-07-18T17:14:57.926Z,25.60
2023-07-18T17:17:24.713Z,25.10
2023-07-18T17:20:04.723Z,25.00
2023-07-18T17:22:34.768Z,24.80
2023-07-18T17:25:01.675Z,24.70
2023-07-18T17:27:28.797Z,24.70
2023-07-18T17:29:55.785Z,24.50
2023-07-18T17:32:22.782Z,24.30
2023-07-18T17:34:49.737Z,24.20
2023-07-18T17:37:17.239Z,24.60
2023-07-18T17:39:45.544Z,25.10
2023-07-18T17:42:12.375Z,24.80
2023-07-18T17:44:40.935Z,24.20
2023-07-18T17:47:07.762Z,24.30
2023-07-18T17:49:34.488Z,25.00
2023-07-18T17:52:01.369Z,24.90
2023-07-18T17:54:28.782Z,24.60
2023-07-18T17:56:55.933Z,24.60
2023-07-18T17:59:22.819Z,24.90
2023-07-18T18:01:49.721Z,24.90
2023-07-18T18:04:16.539Z,24.80
2023-07-18T18:06:43.311Z,24.60
2023-07-18T18:09:10.269Z,24.30
2023-07-18T18:11:37.059Z,24.20
2023-07-18T18:14:04.040Z,23.90
2023-07-18T18:16:30.898Z,23.50
2023-07-18T18:18:57.857Z,23.40
2023-07-18T18:21:26.824Z,23.20
2023-07-18T18:23:53.819Z,23.10
2023-07-18T18:26:21.317Z,23.00
2023-07-18T18:28:48.249Z,23.00
2023-07-18T18:31:15.028Z,22.90
2023-07-18T18:33:41.864Z,22.80
2023-07-18T18:36:08.989Z,22.70
2023-07-18T18:38:35.866Z,22.60
2023-07-18T18:41:04.527Z,22.50
2023-07-18T18:43:31.719Z,22.50
2023-07-18T18:45:58.624Z,22.40
2023-07-18T18:48:26.966Z,22.40
2023-07-18T18:50:53.740Z,22.30
2023-07-18T18:53:22.151Z,22.20
2023-07-18T18:55:49.013Z,21.90
2023-07-18T18:58:15.804Z,21.70
2023-07-18T19:00:42.539Z,21.70
2023-07-18T19:03:09.282Z,21.60
2023-07-18T19:05:36.154Z,21.60
2023-07-18T19:08:03.171Z,21.50
2023-07-18T19:10:30.114Z,21.50
2023-07-18T19:12:56.856Z,21.40
2023-07-18T19:15:23.915Z,21.30
2023-07-18T19:17:50.745Z,21.20
2023-07-18T19:20:17.696Z,21.20
2023-07-18T19:22:44.446Z,21.10
2023-07-18T19:25:11.308Z,20.90
2023-07-18T19:27:38.515Z,20.90
2023-07-18T19:30:06.139Z,20.80
2023-07-18T19:32:33.444Z,20.70
2023-07-18T19:35:00.823Z,20.50
2023-07-18T19:37:27.623Z,20.50
2023-07-18T19:39:54.347Z,20.40
2023-07-18T19:42:21.043Z,20.40
2023-07-18T19:44:48.587Z,20.40
2023-07-18T19:47:15.394Z,20.40
2023-07-18T19:49:42.310Z,20.30
2023-07-18T19:52:09.093Z,20.30
2023-07-18T19:54:35.926Z,20.20
2023-07-18T19:57:02.696Z,20.20
2023-07-18T19:59:31.162Z,20.20
2023-07-18T20:01:58.136Z,20.10
2023-07-18T20:04:25.118Z,20.10
2023-07-18T20:06:52.462Z,20.00
2023-07-18T20:09:19.564Z,20.00
2023-07-18T20:11:46.406Z,19.90
2023-07-18T20:14:13.100Z,19.90
2023-07-18T20:16:39.926Z,19.80
2023-07-18T20:19:06.725Z,19.80
2023-07-18T20:21:33.797Z,19.80
2023-07-18T20:24:00.569Z,19.70
2023-07-18T20:26:29.977Z,19.60
2023-07-18T20:28:57.720Z,19.60
2023-07-18T20:31:24.729Z,19.50
2023-07-18T20:33:52.430Z,19.50
2023-07-18T20:36:19.304Z,19.50
2023-07-18T20:38:47.198Z,19.40
2023-07-18T20:41:14.094Z,19.30
2023-07-18T20:43:41.962Z,19.20
2023-07-18T20:46:11.722Z,19.10
2023-07-18T20:48:38.661Z,19.10
2023-07-18T20:51:06.891Z,19.00
2023-07-18T20:53:33.704Z,19.00
2023-07-18T20:56:00.643Z,18.90
2023-07-18T20:58:27.654Z,18.90
2023-07-18T21:00:54.609Z,18.90
2023-07-18T21:03:21.468Z,18.90
2023-07-18T21:05:51.541Z,18.90
2023-07-18T21:08:18.619Z,18.90
2023-07-18T21:10:45.920Z,18.90
2023-07-18T21:13:13.188Z,18.80
2023-07-18T21:15:40.330Z,18.80
2023-07-18T21:18:07.234Z,18.80
2023-07-18T21:20:35.020Z,18.70
2023-07-18T21:23:02.679Z,18.60
2023-07-18T21:25:30.030Z,18.60
2023-07-18T21:27:59.193Z,18.50
2023-07-18T21:30:26.049Z,18.60
2023-07-18T21:32:53.293Z,18.60
2023-07-18T21:35:23.357Z,18.60
2023-07-18T21:37:51.206Z,18.60
2023-07-18T21:40:21.326Z,18.60
2023-07-18T21:42:49.259Z,18.70
2023-07-18T21:45:16.621Z,18.70
2023-07-18T21:47:43.965Z,18.80
2023-07-18T21:50:11.356Z,18.80
2023-07-18T21:52:38.405Z,18.80
2023-07-18T21:55:05.817Z,18.80
2023-07-18T21:57:32.671Z,18.80
2023-07-18T21:59:59.627Z,18.90
2023-07-18T22:02:37.146Z,18.80
2023-07-18T22:05:04.543Z,18.90
2023-07-18T22:07:31.983Z,18.90
2023-07-18T22:10:00.530Z,18.90
2023-07-18T22:12:27.425Z,19.00
2023-07-18T22:14:54.550Z,19.00
2023-07-18T22:17:21.487Z,18.90
2023-07-18T22:19:48.383Z,19.00
2023-07-18T22:22:15.953Z,19.00
2023-07-18T22:24:42.925Z,18.90
2023-07-18T22:27:10.015Z,18.90
2023-07-18T22:29:37.311Z,18.80
2023-07-18T22:32:04.515Z,18.70
2023-07-18T22:34:32.626Z,18.60
2023-07-18T22:36:59.439Z,18.60
2023-07-18T22:39:35.534Z,18.50
2023-07-18T22:42:33.627Z,18.50
2023-07-18T22:45:01.059Z,18.40
2023-07-18T22:47:27.986Z,18.40
2023-07-18T22:49:55.081Z,18.40
2023-07-18T22:52:22.107Z,18.40
2023-07-18T22:54:53.075Z,18.40
2023-07-18T22:57:20.017Z,18.40
2023-07-18T22:59:48.425Z,18.50
2023-07-18T23:02:15.467Z,18.40
2023-07-18T23:04:42.330Z,18.30
2023-07-18T23:07:10.004Z,18.30
2023-07-18T23:09:36.979Z,18.20
2023-07-18T23:12:04.136Z,18.20
2023-07-18T23:14:31.002Z,18.00
2023-07-18T23:16:58.073Z,17.90
2023-07-18T23:19:25.817Z,17.90
2023-07-18T23:21:52.710Z,17.80
2023-07-18T23:24:19.597Z,17.70
2023-07-18T23:26:47.025Z,17.70
2023-07-18T23:29:13.950Z,17.70
2023-07-18T23:31:40.810Z,17.70
2023-07-18T23:34:07.674Z,17.70
2023-07-18T23:36:34.480Z,17.80
2023-07-18T23:39:13.066Z,17.80
2023-07-18T23:41:41.106Z,17.90
2023-07-18T23:44:08.010Z,18.00
2023-07-18T23:46:34.922Z,18.00
2023-07-18T23:49:01.750Z,18.00
2023-07-18T23:51:28.691Z,18.00
2023-07-18T23:53:55.662Z,18.10
2023-07-18T23:56:22.547Z,18.10
2023-07-18T23:58:49.354Z,18.10
